createdAt,value
2018-06-28T00:02:09.203Z,1.40
2018-06-28T00:04:37.285Z,1.50
2018-06-28T00:07:05.458Z,1.50
2018-06-28T00:09:33.554Z,1.30
2018-06-28T00:12:01.605Z,1.50
2018-06-28T00:14:29.688Z,1.27
2018-06-28T00:16:57.772Z,1.40
2018-06-28T00:19:25.841Z,1.20
2018-06-28T00:21:53.920Z,1.40
2018-06-28T00:24:22.060Z,1.10
2018-06-28T00:26:50.210Z,1.40
2018-06-28T00:29:18.412Z,1.43
2018-06-28T00:31:46.541Z,1.40
2018-06-28T00:34:14.647Z,1.20
2018-06-28T00:36:42.721Z,1.20
2018-06-28T00:39:11.749Z,1.30
2018-06-28T00:41:40.301Z,1.20
2018-06-28T00:44:09.213Z,1.30
2018-06-28T00:46:37.400Z,1.30
2018-06-28T00:49:05.874Z,1.30
2018-06-28T00:51:33.969Z,1.30
2018-06-28T00:54:02.230Z,1.43
2018-06-28T00:56:30.331Z,1.37
2018-06-28T00:58:58.541Z,1.30
2018-06-28T01:01:26.930Z,1.30
2018-06-28T01:03:55.223Z,1.30
2018-06-28T01:06:23.562Z,1.27
2018-06-28T01:08:51.795Z,1.30
2018-06-28T01:11:19.934Z,1.43
2018-06-28T01:13:48.025Z,1.20
2018-06-28T01:16:16.092Z,1.33
2018-06-28T01:18:44.312Z,1.20
2018-06-28T01:21:12.465Z,1.27
2018-06-28T01:23:40.518Z,1.40
2018-06-28T01:26:08.581Z,1.40
2018-06-28T01:28:36.636Z,1.30
2018-06-28T01:31:04.685Z,1.20
2018-06-28T01:33:32.757Z,1.20
2018-06-28T01:36:00.828Z,1.10
2018-06-28T01:38:28.908Z,1.13
2018-06-28T01:40:56.998Z,1.20
2018-06-28T01:43:44.112Z,1.20
2018-06-28T01:46:12.177Z,1.27
2018-06-28T01:48:40.399Z,1.10
2018-06-28T01:51:08.441Z,1.30
2018-06-28T01:53:36.522Z,1.20
2018-06-28T01:56:04.745Z,1.23
2018-06-28T01:58:32.824Z,1.30
2018-06-28T02:01:00.885Z,1.30
2018-06-28T02:03:28.960Z,1.00
2018-06-28T02:05:57.242Z,1.17
2018-06-28T02:08:25.368Z,1.20
2018-06-28T02:10:53.440Z,1.20
2018-06-28T02:13:21.517Z,1.30
2018-06-28T02:15:49.589Z,1.20
2018-06-28T02:18:17.660Z,1.30
2018-06-28T02:20:45.744Z,1.30
2018-06-28T02:23:13.790Z,1.30
2018-06-28T02:25:41.898Z,1.20
2018-06-28T02:28:10.096Z,1.10
2018-06-28T02:30:38.129Z,1.30
2018-06-28T02:33:06.188Z,1.00
2018-06-28T02:35:34.289Z,1.47
2018-06-28T02:38:02.359Z,1.23
2018-06-28T02:40:30.462Z,1.30
2018-06-28T02:42:58.501Z,1.20
2018-06-28T02:45:26.581Z,1.37
2018-06-28T02:47:54.684Z,1.20
2018-06-28T02:50:22.788Z,1.10
2018-06-28T02:52:50.912Z,1.40
2018-06-28T02:55:19.029Z,1.30
2018-06-28T02:57:47.096Z,1.17
2018-06-28T03:00:15.168Z,1.20
2018-06-28T03:02:43.102Z,1.20
2018-06-28T03:05:11.183Z,1.40
2018-06-28T03:07:39.343Z,1.07
2018-06-28T03:10:07.412Z,1.20
2018-06-28T03:12:35.485Z,1.33
2018-06-28T03:15:03.606Z,1.23
2018-06-28T03:17:31.754Z,1.23
2018-06-28T03:19:59.804Z,1.30
2018-06-28T03:22:27.896Z,1.30
2018-06-28T03:24:56.082Z,1.20
2018-06-28T03:27:24.172Z,1.30
2018-06-28T03:29:52.243Z,1.10
2018-06-28T03:32:20.325Z,1.20
2018-06-28T03:34:48.473Z,1.20
2018-06-28T03:37:16.540Z,1.20
2018-06-28T03:39:44.697Z,1.30
2018-06-28T03:42:12.794Z,1.30
2018-06-28T03:44:40.857Z,1.20
2018-06-28T03:47:08.948Z,1.30
2018-06-28T03:49:37.010Z,1.10
2018-06-28T03:52:05.112Z,1.10
2018-06-28T03:54:33.196Z,1.17
2018-06-28T03:57:01.288Z,1.33
2018-06-28T03:59:29.360Z,1.20
2018-06-28T04:01:57.493Z,1.20
2018-06-28T04:04:25.668Z,1.20
2018-06-28T04:06:53.878Z,1.23
2018-06-28T04:09:21.767Z,1.17
2018-06-28T04:11:49.897Z,1.40
2018-06-28T04:14:18.077Z,1.30
2018-06-28T04:16:46.232Z,1.20
2018-06-28T04:19:14.254Z,1.27
2018-06-28T04:21:42.390Z,1.20
2018-06-28T04:24:10.531Z,1.47
2018-06-28T04:26:38.604Z,1.30
2018-06-28T04:29:06.677Z,1.47
2018-06-28T04:31:34.864Z,1.40
2018-06-28T04:34:03.019Z,1.30
2018-06-28T04:36:31.132Z,1.40
2018-06-28T04:38:59.185Z,1.33
2018-06-28T04:41:27.285Z,1.60
2018-06-28T04:43:55.527Z,1.40
2018-06-28T04:46:23.770Z,1.53
2018-06-28T04:48:51.875Z,1.30
2018-06-28T04:51:20.189Z,1.40
2018-06-28T04:53:48.312Z,1.30
2018-06-28T04:56:16.541Z,1.30
2018-06-28T04:58:44.646Z,1.50
2018-06-28T05:01:12.759Z,1.17
2018-06-28T05:03:40.788Z,1.60
2018-06-28T05:06:08.866Z,1.40
2018-06-28T05:08:36.928Z,1.43
2018-06-28T05:11:05.120Z,1.27
2018-06-28T05:13:33.237Z,1.33
2018-06-28T05:16:01.300Z,1.60
2018-06-28T05:18:29.388Z,1.50
2018-06-28T05:20:57.454Z,1.37
2018-06-28T05:23:25.670Z,1.33
2018-06-28T05:25:53.668Z,1.50
2018-06-28T05:28:22.792Z,1.63
2018-06-28T05:30:50.936Z,1.43
2018-06-28T05:33:20.106Z,1.40
2018-06-28T05:35:48.309Z,1.30
2018-06-28T05:38:16.458Z,1.50
2018-06-28T05:40:44.510Z,1.40
2018-06-28T05:43:12.616Z,1.43
2018-06-28T05:45:40.781Z,1.53
2018-06-28T05:48:08.890Z,1.40
2018-06-28T05:50:36.989Z,1.40
2018-06-28T05:53:05.101Z,1.20
2018-06-28T05:55:33.160Z,1.30
2018-06-28T05:58:01.319Z,1.60
2018-06-28T06:00:29.297Z,1.50
2018-06-28T06:02:57.452Z,1.57
2018-06-28T06:05:25.569Z,1.40
2018-06-28T06:07:53.660Z,1.37
2018-06-28T06:10:21.783Z,1.47
2018-06-28T06:12:49.958Z,1.37
2018-06-28T06:15:18.118Z,1.50
2018-06-28T06:17:46.204Z,1.40
2018-06-28T06:20:14.370Z,1.40
2018-06-28T06:22:42.397Z,1.47
2018-06-28T06:25:10.472Z,1.37
2018-06-28T06:27:38.572Z,1.50
2018-06-28T06:30:07.178Z,1.20
2018-06-28T06:32:35.247Z,1.30
2018-06-28T06:35:03.306Z,1.43
2018-06-28T06:37:31.397Z,1.37
2018-06-28T06:39:59.664Z,1.50
2018-06-28T06:42:27.857Z,1.40
2018-06-28T06:44:55.980Z,1.30
2018-06-28T06:47:24.129Z,1.40
2018-06-28T06:49:52.501Z,1.60
2018-06-28T06:52:20.817Z,1.40
2018-06-28T06:54:48.978Z,1.43
2018-06-28T06:57:17.168Z,1.60
2018-06-28T06:59:45.336Z,1.63
2018-06-28T07:02:13.496Z,1.30
2018-06-28T07:04:41.644Z,1.83
2018-06-28T07:07:09.709Z,1.50
2018-06-28T07:09:37.990Z,1.57
2018-06-28T07:12:06.061Z,1.50
2018-06-28T07:14:34.677Z,1.80
2018-06-28T07:17:02.764Z,1.70
2018-06-28T07:19:30.909Z,1.57
2018-06-28T07:21:59.043Z,1.67
2018-06-28T07:24:27.133Z,1.43
2018-06-28T07:26:55.237Z,1.60
2018-06-28T07:29:23.366Z,1.53
2018-06-28T07:31:51.505Z,1.60
2018-06-28T07:34:19.874Z,1.47
2018-06-28T07:36:47.965Z,1.43
2018-06-28T07:39:16.072Z,1.50
2018-06-28T07:41:44.145Z,1.70
2018-06-28T07:44:12.204Z,1.60
2018-06-28T07:46:40.278Z,1.63
2018-06-28T07:49:08.394Z,1.63
2018-06-28T07:51:36.464Z,1.47
2018-06-28T07:54:04.544Z,1.53
2018-06-28T07:56:32.598Z,1.53
2018-06-28T07:59:00.689Z,1.50
2018-06-28T08:01:28.759Z,1.57
2018-06-28T08:03:56.900Z,1.50
2018-06-28T08:06:25.005Z,1.40
2018-06-28T08:08:52.890Z,1.60
2018-06-28T08:11:21.115Z,1.40
2018-06-28T08:13:49.457Z,1.40
2018-06-28T08:16:17.700Z,1.50
2018-06-28T08:18:45.776Z,1.50
2018-06-28T08:21:13.904Z,1.60
2018-06-28T08:23:41.981Z,1.53
2018-06-28T08:26:10.057Z,1.40
2018-06-28T08:28:38.129Z,1.40
2018-06-28T08:31:06.194Z,1.50
2018-06-28T08:33:34.315Z,1.40
2018-06-28T08:36:02.443Z,1.67
2018-06-28T08:38:30.469Z,1.70
2018-06-28T08:40:58.616Z,1.50
2018-06-28T08:43:26.933Z,1.50
2018-06-28T08:45:55.049Z,1.47
2018-06-28T08:48:23.157Z,1.60
2018-06-28T08:50:51.266Z,1.80
2018-06-28T08:53:19.466Z,1.43
2018-06-28T08:55:47.689Z,1.63
2018-06-28T08:58:15.788Z,1.77
2018-06-28T09:00:43.836Z,1.50
2018-06-28T09:03:11.960Z,1.50
2018-06-28T09:05:40.145Z,1.50
2018-06-28T09:08:08.273Z,1.67
2018-06-28T09:10:36.321Z,1.60
2018-06-28T09:13:04.648Z,1.40
2018-06-28T09:15:32.784Z,1.50
2018-06-28T09:18:00.897Z,1.60
2018-06-28T09:20:28.964Z,1.57
2018-06-28T09:22:58.195Z,1.60
2018-06-28T09:25:26.234Z,1.60
2018-06-28T09:27:54.337Z,1.50
2018-06-28T09:30:23.305Z,1.50
2018-06-28T09:32:51.492Z,1.70
2018-06-28T09:35:20.085Z,1.67
2018-06-28T09:37:48.401Z,1.50
2018-06-28T09:40:16.486Z,1.60
2018-06-28T09:42:44.544Z,1.80
2018-06-28T09:45:12.642Z,1.70
2018-06-28T09:47:40.708Z,1.50
2018-06-28T09:50:08.772Z,1.47
2018-06-28T09:52:36.862Z,1.53
2018-06-28T09:55:04.949Z,1.40
2018-06-28T09:57:33.034Z,1.63
2018-06-28T10:00:00.944Z,1.47
2018-06-28T10:02:29.026Z,1.80
2018-06-28T10:04:57.243Z,1.60
2018-06-28T10:07:25.317Z,1.47
2018-06-28T10:09:53.559Z,1.80
2018-06-28T10:12:21.807Z,1.70
2018-06-28T10:14:50.139Z,1.40
2018-06-28T10:17:18.212Z,1.60
2018-06-28T10:19:46.307Z,1.73
2018-06-28T10:22:14.491Z,1.43
2018-06-28T10:24:42.745Z,1.60
2018-06-28T10:27:10.910Z,1.57
2018-06-28T10:29:39.063Z,1.60
2018-06-28T10:32:07.233Z,1.50
2018-06-28T10:34:35.308Z,1.80
2018-06-28T10:37:03.440Z,1.60
2018-06-28T10:39:31.584Z,1.50
2018-06-28T10:41:59.763Z,1.80
2018-06-28T10:44:28.178Z,1.57
2018-06-28T10:46:56.373Z,1.70
2018-06-28T10:49:24.585Z,1.70
2018-06-28T10:51:52.859Z,1.40
2018-06-28T10:54:21.057Z,1.33
2018-06-28T10:56:49.355Z,1.33
2018-06-28T10:59:17.597Z,1.60
2018-06-28T11:01:45.812Z,1.43
2018-06-28T11:04:13.855Z,1.67
2018-06-28T11:06:41.733Z,1.60
2018-06-28T11:09:10.907Z,1.80
2018-06-28T11:11:39.704Z,1.70
2018-06-28T11:14:07.865Z,1.73
2018-06-28T11:16:35.981Z,1.77
2018-06-28T11:19:04.118Z,1.60
2018-06-28T11:21:32.557Z,1.50
2018-06-28T11:24:00.649Z,1.60
2018-06-28T11:26:28.764Z,1.53
2018-06-28T11:28:56.856Z,1.80
2018-06-28T11:31:25.009Z,1.60
2018-06-28T11:33:53.180Z,1.80
2018-06-28T11:36:21.415Z,1.70
2018-06-28T11:38:49.889Z,1.53
2018-06-28T11:41:17.968Z,1.77
2018-06-28T11:43:46.120Z,1.67
2018-06-28T11:46:14.232Z,1.70
2018-06-28T11:48:42.273Z,2.10
2018-06-28T11:51:10.362Z,2.40
2018-06-28T11:53:38.452Z,2.83
2018-06-28T11:56:06.548Z,2.80
2018-06-28T11:58:34.740Z,3.13
2018-06-28T12:01:02.869Z,3.00
2018-06-28T12:03:30.972Z,3.30
2018-06-28T12:05:59.055Z,2.93
2018-06-28T12:08:27.155Z,2.67
2018-06-28T12:10:55.288Z,2.80
2018-06-28T12:13:23.376Z,2.77
2018-06-28T12:15:51.441Z,2.90
2018-06-28T12:18:19.582Z,2.50
2018-06-28T12:20:47.769Z,2.97
2018-06-28T12:23:15.926Z,2.57
2018-06-28T12:25:43.988Z,2.73
2018-06-28T12:28:12.070Z,2.57
2018-06-28T12:30:40.483Z,2.73
2018-06-28T12:33:08.416Z,2.67
2018-06-28T12:35:36.489Z,2.60
2018-06-28T12:38:04.850Z,2.60
2018-06-28T12:40:32.932Z,2.50
2018-06-28T12:43:01.000Z,2.37
2018-06-28T12:45:28.979Z,2.50
2018-06-28T12:48:05.986Z,2.57
2018-06-28T12:50:34.119Z,2.47
2018-06-28T12:53:03.146Z,2.90
2018-06-28T12:56:40.974Z,2.90
2018-06-28T12:59:10.373Z,2.60
2018-06-28T13:01:38.531Z,2.30
2018-06-28T13:04:06.658Z,2.50
2018-06-28T13:06:34.756Z,2.80
2018-06-28T13:09:03.177Z,2.93
2018-06-28T13:11:31.320Z,2.40
2018-06-28T13:13:59.425Z,2.70
2018-06-28T13:16:28.356Z,2.50
2018-06-28T13:18:56.558Z,2.37
2018-06-28T13:21:24.811Z,2.20
2018-06-28T13:23:52.897Z,2.40
2018-06-28T13:26:20.916Z,2.77
2018-06-28T13:28:50.072Z,2.20
2018-06-28T13:31:18.152Z,2.10
2018-06-28T13:33:46.261Z,2.30
2018-06-28T13:36:14.399Z,2.57
2018-06-28T13:38:42.509Z,2.40
2018-06-28T13:41:10.696Z,2.50
2018-06-28T13:43:38.641Z,2.17
2018-06-28T13:46:06.795Z,2.43
2018-06-28T13:48:34.852Z,2.40
2018-06-28T13:51:02.905Z,2.70
2018-06-28T13:53:31.031Z,2.80
2018-06-28T13:55:59.137Z,2.90
2018-06-28T13:58:27.058Z,2.30
2018-06-28T14:00:55.306Z,2.50
2018-06-28T14:03:23.579Z,2.20
2018-06-28T14:05:51.567Z,2.10
2018-06-28T14:08:20.063Z,2.67
2018-06-28T14:10:48.205Z,1.93
2018-06-28T14:13:16.292Z,2.33
2018-06-28T14:15:44.366Z,1.93
2018-06-28T14:18:12.488Z,2.43
2018-06-28T14:20:40.628Z,2.23
2018-06-28T14:23:08.704Z,2.20
2018-06-28T14:25:37.048Z,2.20
2018-06-28T14:28:05.211Z,2.37
2018-06-28T14:30:33.293Z,1.93
2018-06-28T14:33:01.388Z,2.00
2018-06-28T14:35:29.536Z,2.40
2018-06-28T14:37:57.813Z,2.00
2018-06-28T14:40:25.961Z,2.17
2018-06-28T14:42:54.095Z,2.00
2018-06-28T14:45:22.252Z,2.90
2018-06-28T14:47:50.414Z,2.80
2018-06-28T14:50:18.572Z,2.73
2018-06-28T14:52:46.644Z,2.27
2018-06-28T14:55:14.814Z,2.30
2018-06-28T14:57:43.056Z,2.50
2018-06-28T15:00:11.158Z,2.27
2018-06-28T15:02:39.283Z,2.20
2018-06-28T15:05:07.394Z,2.40
2018-06-28T15:07:35.472Z,2.23
2018-06-28T15:10:03.790Z,2.20
2018-06-28T15:12:31.968Z,2.33
2018-06-28T15:15:00.103Z,2.37
2018-06-28T15:17:28.297Z,3.30
2018-06-28T15:19:56.345Z,2.70
2018-06-28T15:22:24.420Z,3.00
2018-06-28T15:24:52.700Z,2.53
2018-06-28T15:27:20.852Z,2.70
2018-06-28T15:29:49.026Z,2.30
2018-06-28T15:32:17.086Z,3.13
2018-06-28T15:34:45.345Z,2.60
2018-06-28T15:37:13.428Z,3.03
2018-06-28T15:39:41.551Z,2.93
2018-06-28T15:42:09.684Z,2.53
2018-06-28T15:44:37.762Z,2.80
2018-06-28T15:47:06.177Z,2.87
2018-06-28T15:49:34.413Z,2.70
2018-06-28T15:52:02.844Z,2.70
2018-06-28T15:54:30.917Z,2.60
2018-06-28T15:56:59.051Z,2.50
2018-06-28T15:59:26.963Z,2.40
2018-06-28T16:01:55.097Z,2.30
2018-06-28T16:04:23.268Z,2.63
2018-06-28T16:06:51.552Z,2.20
2018-06-28T16:09:19.712Z,2.50
2018-06-28T16:11:47.840Z,2.80
2018-06-28T16:14:15.949Z,2.93
2018-06-28T16:16:43.837Z,3.20
2018-06-28T16:19:11.954Z,2.60
2018-06-28T16:21:40.081Z,5.03
2018-06-28T16:24:08.172Z,2.73
2018-06-28T16:26:36.299Z,2.70
2018-06-28T16:29:04.413Z,2.87
2018-06-28T16:31:32.719Z,2.10
2018-06-28T16:34:00.852Z,1.87
2018-06-28T16:36:28.954Z,2.10
2018-06-28T16:38:57.135Z,2.57
2018-06-28T16:41:25.293Z,2.70
2018-06-28T16:43:53.433Z,2.50
2018-06-28T16:46:21.586Z,2.27
2018-06-28T16:48:49.681Z,2.43
2018-06-28T16:51:17.796Z,2.30
2018-06-28T16:53:45.884Z,1.93
2018-06-28T16:56:13.960Z,2.30
2018-06-28T16:58:42.128Z,2.13
2018-06-28T17:01:10.252Z,2.20
2018-06-28T17:03:38.356Z,2.10
2018-06-28T17:06:06.453Z,2.00
2018-06-28T17:08:34.325Z,2.13
2018-06-28T17:11:02.555Z,2.10
2018-06-28T17:13:30.644Z,1.63
2018-06-28T17:15:58.728Z,1.70
2018-06-28T17:18:26.874Z,1.73
2018-06-28T17:20:54.975Z,1.93
2018-06-28T17:23:23.081Z,1.80
2018-06-28T17:25:51.220Z,1.90
2018-06-28T17:28:19.337Z,2.10
2018-06-28T17:30:47.420Z,1.70
2018-06-28T17:33:15.604Z,2.03
2018-06-28T17:35:43.693Z,2.10
2018-06-28T17:38:11.764Z,1.80
2018-06-28T17:40:39.828Z,2.10
2018-06-28T17:43:07.996Z,1.97
2018-06-28T17:45:36.368Z,1.90
2018-06-28T17:48:04.590Z,1.70
2018-06-28T17:50:32.765Z,1.80
2018-06-28T17:53:00.893Z,1.77
2018-06-28T17:55:29.012Z,1.70
2018-06-28T17:57:57.178Z,1.80
2018-06-28T18:00:25.321Z,1.70
2018-06-28T18:02:53.308Z,1.70
2018-06-28T18:05:21.509Z,1.80
2018-06-28T18:07:50.295Z,1.60
2018-06-28T18:10:18.556Z,1.70
2018-06-28T18:12:46.579Z,1.43
2018-06-28T18:15:14.634Z,1.60
2018-06-28T18:17:42.670Z,1.70
2018-06-28T18:20:10.728Z,1.60
2018-06-28T18:22:38.844Z,1.50
2018-06-28T18:25:06.953Z,1.90
2018-06-28T18:27:35.009Z,1.73
2018-06-28T18:30:03.129Z,1.67
2018-06-28T18:32:31.164Z,1.60
2018-06-28T18:34:59.304Z,1.87
2018-06-28T18:37:27.409Z,1.80
2018-06-28T18:39:55.496Z,1.40
2018-06-28T18:42:23.350Z,1.60
2018-06-28T18:44:51.588Z,1.50
2018-06-28T18:47:19.686Z,1.50
2018-06-28T18:49:47.781Z,1.50
2018-06-28T18:52:15.880Z,1.37
2018-06-28T18:54:44.012Z,1.60
2018-06-28T18:57:12.092Z,1.40
2018-06-28T18:59:40.172Z,1.27
2018-06-28T19:02:08.300Z,1.50
2018-06-28T19:04:36.412Z,1.40
2018-06-28T19:07:04.737Z,1.73
2018-06-28T19:09:38.184Z,1.27
2018-06-28T19:12:06.273Z,1.57
2018-06-28T19:14:39.901Z,1.70
2018-06-28T19:17:08.031Z,1.53
2018-06-28T19:19:36.085Z,1.40
2018-06-28T19:22:09.668Z,1.50
2018-06-28T19:24:37.765Z,1.60
2018-06-28T19:27:05.869Z,1.50
2018-06-28T19:29:39.414Z,1.63
2018-06-28T19:32:13.080Z,1.50
2018-06-28T19:34:41.208Z,1.67
2018-06-28T19:37:13.570Z,1.70
2018-06-28T19:39:47.237Z,1.87
2018-06-28T19:42:20.721Z,1.70
2018-06-28T19:44:49.838Z,1.40
2018-06-28T19:47:17.961Z,1.60
2018-06-28T19:49:51.542Z,1.47
2018-06-28T19:52:25.254Z,1.70
2018-06-28T19:54:53.266Z,1.63
2018-06-28T19:57:21.383Z,1.33
2018-06-28T19:59:49.497Z,1.40
2018-06-28T20:02:22.965Z,1.90
2018-06-28T20:04:51.044Z,1.53
2018-06-28T20:07:19.241Z,1.80
2018-06-28T20:09:47.308Z,1.60
2018-06-28T20:12:20.906Z,1.90
2018-06-28T20:14:54.918Z,1.40
2018-06-28T20:17:28.538Z,1.60
2018-06-28T20:20:08.992Z,1.70
2018-06-28T20:22:37.101Z,1.80
2018-06-28T20:25:05.209Z,1.63
2018-06-28T20:27:38.862Z,1.43
2018-06-28T20:30:12.518Z,1.80
2018-06-28T20:32:46.249Z,1.43
2018-06-28T20:35:14.318Z,1.70
2018-06-28T20:37:42.452Z,1.70
2018-06-28T20:40:10.521Z,1.50
2018-06-28T20:42:38.600Z,1.63
2018-06-28T20:45:06.742Z,1.50
2018-06-28T20:47:34.833Z,1.50
2018-06-28T20:50:02.905Z,1.47
2018-06-28T20:52:30.855Z,1.40
2018-06-28T20:54:58.932Z,1.77
2018-06-28T20:57:27.076Z,1.70
2018-06-28T20:59:55.180Z,1.30
2018-06-28T21:02:23.240Z,1.83
2018-06-28T21:04:51.415Z,1.70
2018-06-28T21:07:19.485Z,1.73
2018-06-28T21:09:47.845Z,1.50
2018-06-28T21:12:15.895Z,1.63
2018-06-28T21:14:44.319Z,1.70
2018-06-28T21:17:12.405Z,1.60
2018-06-28T21:19:40.504Z,1.60
2018-06-28T21:22:08.669Z,1.77
2018-06-28T21:24:36.708Z,1.80
2018-06-28T21:27:04.563Z,1.90
2018-06-28T21:29:32.726Z,1.70
2018-06-28T21:32:00.821Z,1.77
2018-06-28T21:34:28.888Z,1.87
2018-06-28T21:36:56.963Z,1.63
2018-06-28T21:39:25.033Z,1.70
2018-06-28T21:41:53.178Z,1.80
2018-06-28T21:44:21.389Z,1.77
2018-06-28T21:46:49.528Z,1.80
2018-06-28T21:49:17.601Z,1.73
2018-06-28T21:51:45.693Z,1.90
2018-06-28T21:54:13.938Z,1.93
2018-06-28T21:56:41.973Z,1.80
2018-06-28T21:59:10.148Z,1.80
2018-06-28T22:01:42.805Z,1.90
2018-06-28T22:04:10.853Z,1.70
2018-06-28T22:06:38.961Z,1.80
2018-06-28T22:09:07.092Z,1.90
2018-06-28T22:11:35.186Z,2.00
2018-06-28T22:14:03.376Z,1.80
2018-06-28T22:16:31.433Z,2.00
2018-06-28T22:18:59.560Z,1.90
2018-06-28T22:21:27.619Z,1.83
2018-06-28T22:23:55.710Z,2.10
2018-06-28T22:26:23.839Z,1.80
2018-06-28T22:28:52.125Z,1.97
2018-06-28T22:31:20.294Z,2.03
2018-06-28T22:33:48.461Z,2.10
2018-06-28T22:36:16.572Z,1.63
2018-06-28T22:38:44.684Z,1.90
2018-06-28T22:41:12.733Z,2.33
2018-06-28T22:43:40.821Z,2.00
2018-06-28T22:46:08.870Z,2.47
2018-06-28T22:48:36.967Z,2.07
2018-06-28T22:51:05.076Z,2.13
2018-06-28T22:53:33.228Z,2.20
2018-06-28T22:56:01.431Z,1.90
2018-06-28T22:58:29.484Z,2.00
2018-06-28T23:00:57.609Z,2.07
2018-06-28T23:03:25.681Z,2.20
2018-06-28T23:05:53.782Z,2.07
2018-06-28T23:08:22.010Z,2.20
2018-06-28T23:10:50.117Z,1.90
2018-06-28T23:13:18.380Z,2.20
2018-06-28T23:15:46.565Z,1.87
2018-06-28T23:18:14.734Z,1.77
2018-06-28T23:20:42.884Z,2.00
2018-06-28T23:23:11.105Z,1.90
2018-06-28T23:25:39.044Z,1.87
2018-06-28T23:28:07.104Z,2.03
2018-06-28T23:30:35.185Z,1.93
2018-06-28T23:33:03.360Z,1.53
2018-06-28T23:35:31.445Z,2.07
2018-06-28T23:37:59.509Z,1.60
2018-06-28T23:40:27.755Z,1.97
2018-06-28T23:42:55.849Z,1.80
2018-06-28T23:45:23.920Z,1.63
2018-06-28T23:47:51.972Z,2.13
2018-06-28T23:50:20.064Z,2.00
2018-06-28T23:52:48.173Z,1.87
2018-06-28T23:55:16.381Z,2.00
2018-06-28T23:57:44.511Z,1.80
